Shinwamaru — SHINWA — position and weather

sailwx.info

Track history (hours):
 
Tides and Currents Weather Stations Pressure Air Temp Water Temp Dewpoint Dewpoint Depression Visibility Wind Speed Wind Dir Waves Ship Positions

Shinwamaru

Last reported at 2018-Jul-15 20:29 UTC. Time now 2018-Jul-15 20:45 UTC.
Position N 35°30' E 139°44'.

Length 12 m.

Type: Tug. MMSI: 431009702.

Date/timePositionNaut miles runAvg speedWind from/ knotsBaromVisibWave heightAir tempDewpointWater temp
2018-Jul-15 20:29N 35°30' E 139°44'4 7.3
2018-Jul-15 19:59N 35°27' E 139°40'1 1.6
2018-Jul-15 19:29N 35°27' E 139°40'0 0.0
2018-Jul-15 07:37N 35°27' E 139°40'0 1.8
2018-Jul-15 07:30N 35°27' E 139°40'5 0.6
2018-Jul-14 22:39N 35°30' E 139°45'1 8.2
2018-Jul-14 22:28N 35°29' E 139°43'4 7.6
2018-Jul-14 21:59N 35°27' E 139°40'0 0.0
2018-Jul-14 08:03N 35°27' E 139°40'0 0.0
2018-Jul-14 07:57N 35°27' E 139°40'0 1.0
2018-Jul-14 07:30N 35°27' E 139°40'5 0.5
2018-Jul-13 22:55N 35°30' E 139°44'3 7.6
2018-Jul-13 22:30N 35°28' E 139°41'2 2.7
2018-Jul-13 21:46N 35°27' E 139°40'  
2018-Jul-10 04:49N 35°27' E 139°40'2 4.9
2018-Jul-10 04:29N 35°28' E 139°41'4 4.2
2018-Jul-10 03:36N 35°31' E 139°44'1 4.8
2018-Jul-10 03:27N 35°30' E 139°44'0 0.1
2018-Jul-09 20:41N 35°30' E 139°44'2 8.0
2018-Jul-09 20:28N 35°29' E 139°43'3 0.3
2018-Jul-09 08:37N 35°27' E 139°40'0 0.8
2018-Jul-09 08:30N 35°27' E 139°40'4 7.3
2018-Jul-09 07:56N 35°30' E 139°43'1 0.1
2018-Jul-08 21:08N 35°30' E 139°45'1 7.5
2018-Jul-08 20:56N 35°29' E 139°43'3 7.1
2018-Jul-08 20:30N 35°27' E 139°40'1 0.1
2018-Jul-08 07:24N 35°27' E 139°40'3 6.4
2018-Jul-08 07:00N 35°29' E 139°41'4 0.9
2018-Jul-08 02:16N 35°29' E 139°47'2 4.3
2018-Jul-08 01:50N 35°27' E 139°45'2 4.5
2018-Jul-08 01:29N 35°26' E 139°44'2 3.4
2018-Jul-08 01:00N 35°25' E 139°43'2 4.5
2018-Jul-08 00:29N 35°23' E 139°41'2 4.5
2018-Jul-08 00:00N 35°21' E 139°40'1 0.2
2018-Jul-07 21:48N 35°21' E 139°40'3 7.8
2018-Jul-07 21:28N 35°24' E 139°40'3 6.8
2018-Jul-07 20:59N 35°27' E 139°41'1 0.0
2018-Jul-06 03:37N 35°27' E 139°40'0 0.7
2018-Jul-06 03:30N 35°27' E 139°40'2 4.7
2018-Jul-06 03:00N 35°29' E 139°41'1 2.3
2018-Jul-06 02:28N 35°28' E 139°40'  
Track history (hours):
 
Tides and Currents Weather Stations Pressure Air Temp Water Temp Dewpoint Dewpoint Depression Visibility Wind Speed Wind Dir Waves Ship Positions

Shinwamaru

Last reported at 2018-Jul-15 20:29 UTC. Time now 2018-Jul-15 20:45 UTC.
Position N 35°30' E 139°44'.

Length 12 m.

Type: Tug. MMSI: 431009702.

Date/timePositionNaut miles runAvg speedWind from/ knotsBaromVisibWave heightAir tempDewpointWater temp
2018-Jul-15 20:29N 35°30' E 139°44'4 7.3
2018-Jul-15 19:59N 35°27' E 139°40'1 1.6
2018-Jul-15 19:29N 35°27' E 139°40'0 0.0
2018-Jul-15 07:37N 35°27' E 139°40'0 1.8
2018-Jul-15 07:30N 35°27' E 139°40'5 0.6
2018-Jul-14 22:39N 35°30' E 139°45'1 8.2
2018-Jul-14 22:28N 35°29' E 139°43'4 7.6
2018-Jul-14 21:59N 35°27' E 139°40'0 0.0
2018-Jul-14 08:03N 35°27' E 139°40'0 0.0
2018-Jul-14 07:57N 35°27' E 139°40'0 1.0
2018-Jul-14 07:30N 35°27' E 139°40'5 0.5
2018-Jul-13 22:55N 35°30' E 139°44'3 7.6
2018-Jul-13 22:30N 35°28' E 139°41'2 2.7
2018-Jul-13 21:46N 35°27' E 139°40'  
2018-Jul-10 04:49N 35°27' E 139°40'2 4.9
2018-Jul-10 04:29N 35°28' E 139°41'4 4.2
2018-Jul-10 03:36N 35°31' E 139°44'1 4.8
2018-Jul-10 03:27N 35°30' E 139°44'0 0.1
2018-Jul-09 20:41N 35°30' E 139°44'2 8.0
2018-Jul-09 20:28N 35°29' E 139°43'3 0.3
2018-Jul-09 08:37N 35°27' E 139°40'0 0.8
2018-Jul-09 08:30N 35°27' E 139°40'4 7.3
2018-Jul-09 07:56N 35°30' E 139°43'1 0.1
2018-Jul-08 21:08N 35°30' E 139°45'1 7.5
2018-Jul-08 20:56N 35°29' E 139°43'3 7.1
2018-Jul-08 20:30N 35°27' E 139°40'1 0.1
2018-Jul-08 07:24N 35°27' E 139°40'3 6.4
2018-Jul-08 07:00N 35°29' E 139°41'4 0.9
2018-Jul-08 02:16N 35°29' E 139°47'2 4.3
2018-Jul-08 01:50N 35°27' E 139°45'2 4.5
2018-Jul-08 01:29N 35°26' E 139°44'2 3.4
2018-Jul-08 01:00N 35°25' E 139°43'2 4.5
2018-Jul-08 00:29N 35°23' E 139°41'2 4.5
2018-Jul-08 00:00N 35°21' E 139°40'1 0.2
2018-Jul-07 21:48N 35°21' E 139°40'3 7.8
2018-Jul-07 21:28N 35°24' E 139°40'3 6.8
2018-Jul-07 20:59N 35°27' E 139°41'1 0.0
2018-Jul-06 03:37N 35°27' E 139°40'0 0.7
2018-Jul-06 03:30N 35°27' E 139°40'2 4.7
2018-Jul-06 03:00N 35°29' E 139°41'1 2.3
2018-Jul-06 02:28N 35°28' E 139°40'  

Dump ship's entire track history